TJH weather

Tajima Airport
Tajima, Hyōgo Prefecture, Japan

Public forecast

Using degrees Celsius for public forecast. Weather courtesy of forecast.io.

METAR (pilot weather report)

Report is more than 2 hours old.

Retrieved 2019/05/27 09:00 UTC (4 hours ago):

RJBT 270900Z 18012KT 9999 FEW030 SCT120 BKN140 23/10 Q1010

TAF (pilot weather forecast)

Closest forecast is Osaka International Airport, 54.1 nm (100.2 km) SE. Retrieved 2019/05/27 12:00 UTC (52 minutes ago):

TAF RJOO 271108Z 2712/2818 24007KT 9999 FEW025 SCT040 BECMG 2717/2719 22008KT TEMPO 2803/2809 3000 SHRA BR FEW006 BKN008 BKN020 BECMG 2806/2809 35015KT